Time;durP1;ratioP1;P1;durP2;ratioP2;P2;SDS_P1;SDS_P2;PMS_P1;PMS_P2;Temp;Humidity;BMP_temperature;BMP_pressure;BME280_temperature;BME280_humidity;BME280_pressure;Samples;Min_cycle;Max_cycle;Signal;HPM_P1;HPM_P2
2021/01/23 00:00:07;;;;;;;32.50;22.80;;;;;;;5.13;77.45;100589.34;1676267;85;21212;-63
2021/01/23 00:03:13;;;;;;;40.03;25.10;;;;;;;5.09;77.50;100589.27;1676712;85;21198;-63
2021/01/23 00:06:18;;;;;;;37.53;23.70;;;;;;;5.08;77.65;100587.53;1663545;86;21276;-63
2021/01/23 00:09:23;;;;;;;37.28;23.30;;;;;;;5.08;77.68;100591.11;1676120;85;21217;-63
2021/01/23 00:12:28;;;;;;;37.70;23.92;;;;;;;5.10;77.79;100586.91;1676127;85;21281;-63
2021/01/23 00:15:34;;;;;;;43.92;25.82;;;;;;;5.09;77.96;100587.91;1652127;86;21312;-63
2021/01/23 00:18:39;;;;;;;36.10;23.70;;;;;;;5.09;77.99;100578.42;1676283;85;21315;-63
2021/01/23 00:21:45;;;;;;;35.52;22.48;;;;;;;5.10;78.15;100585.55;1677490;85;21216;-62
2021/01/23 00:24:50;;;;;;;36.70;22.02;;;;;;;5.12;78.20;100586.28;1652213;86;21234;-63
2021/01/23 00:27:59;;;;;;;35.30;22.75;;;;;;;5.06;78.22;100576.81;1676218;85;21216;-62
2021/01/23 00:31:05;;;;;;;41.20;25.02;;;;;;;4.96;78.36;100576.42;1676225;85;21226;-62
2021/01/23 00:34:10;;;;;;;37.33;23.67;;;;;;;4.92;78.58;100572.25;1652691;86;21236;-63
2021/01/23 00:37:16;;;;;;;39.67;24.18;;;;;;;4.89;78.80;100563.02;1676260;85;21213;-64
2021/01/23 00:40:23;;;;;;;38.40;25.92;;;;;;;4.85;79.00;100562.47;1676583;85;21596;-64
2021/01/23 00:43:28;;;;;;;45.38;26.27;;;;;;;4.84;79.22;100559.86;1663504;86;21291;-64
2021/01/23 00:46:35;;;;;;;43.52;25.10;;;;;;;4.83;79.45;100558.15;1676196;85;21239;-63
2021/01/23 00:49:41;;;;;;;44.95;24.30;;;;;;;4.87;79.61;100551.48;1676376;85;21222;-63
2021/01/23 00:52:46;;;;;;;44.33;25.27;;;;;;;4.90;79.64;100546.61;1652499;84;21379;-62
2021/01/23 00:55:51;;;;;;;46.25;25.05;;;;;;;4.91;79.70;100542.93;1680376;85;21258;-63
2021/01/23 00:58:58;;;;;;;41.02;24.20;;;;;;;4.92;79.75;100549.19;1680330;85;21212;-63
2021/01/23 01:02:04;;;;;;;46.18;25.80;;;;;;;4.93;79.85;100546.34;1680322;85;21777;-63
2021/01/23 01:05:12;;;;;;;44.40;24.77;;;;;;;4.96;79.92;100541.16;1680269;85;21398;-63
2021/01/23 01:08:17;;;;;;;37.13;23.47;;;;;;;5.02;79.88;100536.54;1680279;85;21221;-64
2021/01/23 01:11:23;;;;;;;39.75;23.87;;;;;;;5.04;79.85;100534.55;1680315;85;21300;-63
2021/01/23 01:14:29;;;;;;;44.58;25.37;;;;;;;5.08;79.84;100531.42;1680322;85;21308;-64
2021/01/23 01:17:35;;;;;;;36.35;23.40;;;;;;;5.18;79.80;100535.53;1650988;86;21920;-63
2021/01/23 01:20:41;;;;;;;38.35;22.42;;;;;;;5.23;79.65;100534.09;1680208;85;21398;-64
2021/01/23 01:23:47;;;;;;;40.28;22.32;;;;;;;5.29;79.50;100534.06;1651080;86;21348;-64
2021/01/23 01:26:52;;;;;;;39.23;24.35;;;;;;;5.31;79.34;100526.13;1680190;85;21498;-63
2021/01/23 01:29:58;;;;;;;41.75;25.25;;;;;;;5.32;79.25;100529.22;1680202;85;21359;-63
2021/01/23 01:33:04;;;;;;;46.70;25.40;;;;;;;5.40;79.26;100527.16;1679652;85;21453;-63
2021/01/23 01:36:09;;;;;;;45.55;27.70;;;;;;;5.46;79.06;100527.47;1665122;85;21406;-62
2021/01/23 01:39:14;;;;;;;41.70;26.80;;;;;;;5.48;78.84;100529.55;1651082;86;21371;-63
2021/01/23 01:42:19;;;;;;;42.70;25.80;;;;;;;5.51;78.85;100532.47;1680386;85;21276;-63
2021/01/23 01:45:25;;;;;;;46.15;25.80;;;;;;;5.56;78.61;100523.41;1680445;85;21325;-62
2021/01/23 01:48:31;;;;;;;40.60;26.35;;;;;;;5.54;78.50;100528.11;1679968;85;21257;-63
2021/01/23 01:51:36;;;;;;;42.67;25.35;;;;;;;5.46;78.48;100528.81;1680207;85;21311;-63
2021/01/23 01:54:41;;;;;;;40.85;25.25;;;;;;;5.43;78.65;100529.11;1652722;86;21252;-62
2021/01/23 01:57:48;;;;;;;38.73;23.47;;;;;;;5.44;78.66;100534.05;1652796;87;21244;-62
2021/01/23 02:00:53;;;;;;;37.78;23.67;;;;;;;5.44;78.70;100529.45;1652714;86;21266;-62
2021/01/23 02:04:35;;;;;;;41.60;24.30;;;;;;;5.47;78.70;100522.90;1652668;86;21229;-62
2021/01/23 02:08:04;;;;;;;38.45;23.25;;;;;;;5.45;78.76;100519.46;1624721;88;21233;-62
2021/01/23 02:11:34;;;;;;;45.48;24.95;;;;;;;5.48;78.68;100513.75;1652757;87;21361;-62
2021/01/23 02:15:03;;;;;;;40.15;24.00;;;;;;;5.44;78.59;100516.40;1652865;87;21788;-62
2021/01/23 02:18:16;;;;;;;42.17;24.80;;;;;;;5.45;78.76;100519.46;1652505;86;21255;-62
2021/01/23 02:21:39;;;;;;;40.03;23.87;;;;;;;5.49;78.83;100524.95;1652277;86;21268;-62
2021/01/23 02:24:44;;;;;;;42.23;24.00;;;;;;;5.55;78.80;100529.85;1652412;86;21316;-62
2021/01/23 02:28:15;;;;;;;41.00;24.85;;;;;;;5.54;78.70;100532.19;1652704;86;21252;-63
2021/01/23 02:31:26;;;;;;;46.33;24.47;;;;;;;5.50;78.82;100523.45;1652600;86;21267;-63
2021/01/23 02:34:34;;;;;;;47.55;26.23;;;;;;;5.49;78.91;100538.04;1652615;86;21264;-63
2021/01/23 02:37:39;;;;;;;46.30;25.65;;;;;;;5.52;79.02;100530.10;1651477;86;21227;-63
2021/01/23 02:40:44;;;;;;;43.10;25.52;;;;;;;5.62;79.13;100528.27;1648962;86;21260;-63
2021/01/23 02:43:53;;;;;;;44.23;26.15;;;;;;;5.65;78.94;100536.13;1653559;86;21248;-62
2021/01/23 02:47:00;;;;;;;47.15;26.68;;;;;;;5.66;78.81;100537.87;1652730;86;21359;-63
2021/01/23 02:50:07;;;;;;;46.60;26.75;;;;;;;5.64;78.89;100536.66;1652641;86;21308;-63
2021/01/23 02:53:25;;;;;;;50.03;26.05;;;;;;;5.70;79.01;100539.29;1652583;86;21253;-63
2021/01/23 02:56:31;;;;;;;48.13;26.15;;;;;;;5.75;78.85;100528.86;1623162;88;21261;-63
2021/01/23 02:59:38;;;;;;;51.92;26.85;;;;;;;5.71;78.68;100528.77;1622854;88;21332;-63
2021/01/23 03:02:48;;;;;;;48.15;24.15;;;;;;;5.63;78.71;100524.54;1623203;88;21876;-64
2021/01/23 03:05:53;;;;;;;48.83;26.42;;;;;;;5.55;78.97;100533.40;1622863;88;21269;-63
2021/01/23 03:09:02;;;;;;;43.50;23.92;;;;;;;5.54;79.23;100532.19;1647227;86;21254;-62
2021/01/23 03:12:09;;;;;;;47.62;24.47;;;;;;;5.58;79.26;100532.28;1633690;88;21260;-63
2021/01/23 03:15:17;;;;;;;45.98;24.40;;;;;;;5.62;79.40;100530.98;1634411;88;21327;-63
2021/01/23 03:18:22;;;;;;;39.10;24.27;;;;;;;5.70;79.29;100532.01;1634377;88;21315;-63
2021/01/23 03:21:28;;;;;;;43.63;24.52;;;;;;;5.76;79.31;100534.64;1650899;86;21359;-62
2021/01/23 03:24:35;;;;;;;46.58;25.60;;;;;;;5.85;79.12;100527.05;1623186;88;21331;-62
2021/01/23 03:27:42;;;;;;;45.38;23.67;;;;;;;5.86;78.91;100526.91;1623544;88;21284;-62
2021/01/23 03:30:47;;;;;;;46.08;24.63;;;;;;;5.91;78.86;100523.23;1647493;86;21413;-63
2021/01/23 03:33:53;;;;;;;47.93;26.12;;;;;;;5.96;78.74;100521.48;1634400;88;21321;-62
2021/01/23 03:36:59;;;;;;;50.38;27.42;;;;;;;5.99;78.55;100519.31;1634657;86;21210;-63
2021/01/23 03:40:04;;;;;;;48.15;28.25;;;;;;;5.97;78.38;100519.98;1647150;86;21277;-62
2021/01/23 03:43:10;;;;;;;57.17;30.00;;;;;;;5.94;78.28;100514.83;1634181;88;21372;-63
2021/01/23 03:46:17;;;;;;;54.73;29.55;;;;;;;5.90;78.13;100517.95;1634383;88;21268;-63
2021/01/23 03:49:23;;;;;;;53.55;29.20;;;;;;;5.84;78.23;100516.68;1651002;87;21796;-64
2021/01/23 03:52:29;;;;;;;50.38;26.80;;;;;;;5.81;78.23;100517.42;1651282;87;21261;-64
2021/01/23 03:55:34;;;;;;;44.75;24.52;;;;;;;5.77;78.36;100513.30;1664392;84;21290;-64
2021/01/23 03:58:41;;;;;;;45.30;25.15;;;;;;;5.73;78.33;100514.56;1684710;85;21202;-63
2021/01/23 04:01:47;;;;;;;47.50;24.95;;;;;;;5.70;78.53;100516.20;1684523;85;21234;-63
2021/01/23 04:04:53;;;;;;;37.93;20.52;;;;;;;5.73;78.75;100507.28;1684862;85;21186;-63
2021/01/23 04:07:59;;;;;;;34.85;20.35;;;;;;;5.79;78.73;100501.76;1689701;85;21903;-64
2021/01/23 04:11:04;;;;;;;33.78;20.30;;;;;;;5.77;78.64;100498.35;1685579;85;21206;-63
2021/01/23 04:14:11;;;;;;;32.25;19.77;;;;;;;5.74;78.70;100500.00;1690007;85;21331;-63
2021/01/23 04:17:18;;;;;;;31.80;18.48;;;;;;;5.73;78.83;100498.27;1684555;85;21245;-63
2021/01/23 04:20:24;;;;;;;38.15;19.48;;;;;;;5.71;78.89;100495.69;1637487;87;21283;-63
2021/01/23 04:23:33;;;;;;;36.58;22.27;;;;;;;5.68;79.04;100486.97;1724112;83;21232;-63
2021/01/23 04:26:42;;;;;;;38.20;22.27;;;;;;;5.69;79.14;100491.41;1723818;83;21268;-63
2021/01/23 04:29:48;;;;;;;37.28;22.70;;;;;;;5.72;79.24;100500.63;1665875;84;21186;-64
2021/01/23 04:32:54;;;;;;;37.58;22.48;;;;;;;5.73;79.26;100495.55;1689588;85;21917;-64
2021/01/23 04:36:00;;;;;;;43.83;23.10;;;;;;;5.72;79.32;100488.41;1684381;85;21806;-63
2021/01/23 04:39:07;;;;;;;37.05;21.05;;;;;;;5.70;79.33;100483.61;1653177;86;21241;-64
2021/01/23 04:42:17;;;;;;;37.38;21.27;;;;;;;5.71;79.54;100488.03;1723474;83;21390;-63
2021/01/23 04:45:23;;;;;;;35.90;20.72;;;;;;;5.72;79.52;100487.89;1684559;85;21234;-63
2021/01/23 04:48:29;;;;;;;37.23;20.40;;;;;;;5.74;79.56;100483.19;1689712;85;21398;-63
2021/01/23 04:51:34;;;;;;;37.83;20.62;;;;;;;5.74;79.59;100482.34;1684431;85;21242;-63
2021/01/23 04:54:40;;;;;;;40.73;22.95;;;;;;;5.78;79.59;100481.05;1684553;85;21306;-62
2021/01/23 04:57:47;;;;;;;30.57;20.10;;;;;;;5.74;79.65;100478.27;1668953;84;21238;-63
2021/01/23 05:00:53;;;;;;;34.67;20.27;;;;;;;5.74;79.60;100483.70;1666889;85;21353;-63
2021/01/23 05:04:06;;;;;;;31.07;19.12;;;;;;;5.73;79.55;100480.61;1625696;87;21198;-63
2021/01/23 05:07:12;;;;;;;31.87;18.27;;;;;;;5.67;79.54;100473.91;1642173;87;21253;-63
2021/01/23 05:10:27;;;;;;;37.55;20.70;;;;;;;5.63;79.57;100476.53;1666207;85;21759;-64
2021/01/23 05:13:35;;;;;;;34.73;20.37;;;;;;;5.62;79.69;100478.91;1666645;86;21346;-62
2021/01/23 05:16:41;;;;;;;36.63;19.40;;;;;;;5.64;79.78;100474.69;1666647;86;21333;-62
2021/01/23 05:19:50;;;;;;;33.70;20.23;;;;;;;5.60;79.76;100470.52;1642339;86;21391;-63
2021/01/23 05:22:56;;;;;;;34.67;19.25;;;;;;;5.51;79.82;100465.95;1666782;85;21359;-63
2021/01/23 05:26:06;;;;;;;33.13;19.62;;;;;;;5.43;80.01;100467.16;1667095;85;21418;-63
2021/01/23 05:29:21;;;;;;;32.80;19.32;;;;;;;5.35;80.27;100460.22;1647259;87;21233;-62
2021/01/23 05:32:27;;;;;;;34.88;18.70;;;;;;;5.33;80.57;100466.27;1666905;85;21260;-63
2021/01/23 05:35:37;;;;;;;31.75;18.57;;;;;;;5.31;80.71;100465.58;1666988;85;21200;-63
2021/01/23 05:38:52;;;;;;;28.30;18.30;;;;;;;5.27;80.86;100466.36;1667277;85;21381;-63
2021/01/23 05:42:13;;;;;;;34.35;18.57;;;;;;;5.23;81.04;100468.97;1642314;86;21581;-63
2021/01/23 05:45:21;;;;;;;32.33;19.00;;;;;;;5.21;81.23;100464.20;1666840;85;21402;-63
2021/01/23 05:48:27;;;;;;;34.58;20.23;;;;;;;5.24;81.32;100475.27;1667191;85;21349;-62
2021/01/23 05:51:33;;;;;;;30.60;19.17;;;;;;;5.31;81.55;100467.77;1647350;87;21288;-64
2021/01/23 05:54:39;;;;;;;32.63;21.12;;;;;;;5.40;81.64;100471.02;1667252;85;21351;-63
2021/01/23 05:57:45;;;;;;;29.35;18.05;;;;;;;5.49;81.62;100463.87;1639428;85;21389;-62
2021/01/23 06:00:51;;;;;;;32.58;19.12;;;;;;;5.63;81.61;100456.66;1653349;87;21891;-62
2021/01/23 06:04:01;;;;;;;32.80;21.60;;;;;;;5.75;81.48;100467.27;1667207;85;21355;-64
2021/01/23 06:07:07;;;;;;;28.47;18.07;;;;;;;5.87;81.33;100475.64;1668268;85;21207;-63
2021/01/23 06:10:32;;;;;;;35.68;21.87;;;;;;;5.98;81.02;100478.70;1647255;87;21296;-63
2021/01/23 06:13:48;;;;;;;28.73;17.67;;;;;;;5.97;80.61;100484.66;1666593;85;21265;-62
2021/01/23 06:16:54;;;;;;;29.35;18.87;;;;;;;5.97;80.46;100490.58;1666742;86;21343;-63
2021/01/23 06:20:00;;;;;;;33.80;21.05;;;;;;;5.97;80.37;100493.30;1666665;85;21767;-63
2021/01/23 06:23:07;;;;;;;30.43;19.70;;;;;;;6.00;80.29;100500.67;1642160;87;21372;-65
2021/01/23 06:26:13;;;;;;;31.70;19.82;;;;;;;6.00;80.03;100497.08;1666403;85;21320;-63
2021/01/23 06:29:20;;;;;;;36.30;19.75;;;;;;;5.97;80.15;100498.23;1667444;85;21337;-63
2021/01/23 06:32:29;;;;;;;27.20;18.75;;;;;;;6.01;80.13;100496.06;1632976;87;21470;-63
2021/01/23 06:35:36;;;;;;;29.37;19.17;;;;;;;6.04;79.94;100498.53;1667759;85;21339;-63
2021/01/23 06:38:43;;;;;;;30.02;18.37;;;;;;;5.96;79.75;100491.59;1667466;85;21219;-64
2021/01/23 06:41:48;;;;;;;32.78;19.70;;;;;;;5.90;79.78;100492.14;1647264;87;21221;-64
2021/01/23 07:19:34;;;;;;;25.52;17.32;;;;;;;5.82;80.01;100479.28;1760892;77;21231;-53
2021/01/23 07:22:40;;;;;;;26.62;16.27;;;;;;;5.87;80.18;100470.70;1743967;82;21235;-54
2021/01/23 07:25:45;;;;;;;26.80;17.20;;;;;;;5.91;80.13;100491.16;1770650;79;21380;-53
2021/01/23 07:28:58;;;;;;;26.02;16.52;;;;;;;5.98;80.27;100493.16;1767341;80;21446;-53
2021/01/23 07:32:04;;;;;;;27.32;16.35;;;;;;;6.05;80.04;100488.00;1767455;81;21275;-54
2021/01/23 07:35:11;;;;;;;25.45;16.70;;;;;;;6.12;80.06;100482.33;1767082;80;21406;-55
2021/01/23 07:38:17;;;;;;;27.55;16.73;;;;;;;6.17;79.86;100484.63;1767155;81;21362;-55
2021/01/23 07:41:22;;;;;;;28.23;17.00;;;;;;;6.20;79.82;100487.05;1767758;81;21350;-55
2021/01/23 07:44:28;;;;;;;29.23;16.48;;;;;;;6.27;79.86;100487.68;1767600;80;21685;-54
2021/01/23 07:47:34;;;;;;;27.55;16.30;;;;;;;6.38;79.81;100489.36;1767599;81;21374;-55
2021/01/23 07:50:49;;;;;;;30.30;17.75;;;;;;;6.46;79.70;100486.77;1767426;80;21394;-55
2021/01/23 07:54:15;;;;;;;27.35;18.05;;;;;;;6.54;79.49;100490.48;1767630;80;21450;-53
2021/01/23 07:57:20;;;;;;;26.55;16.25;;;;;;;6.64;79.45;100497.25;1767632;81;21331;-54
2021/01/23 08:00:29;;;;;;;29.42;17.17;;;;;;;6.74;79.13;100494.84;1767611;80;21229;-55
2021/01/23 08:03:45;;;;;;;24.18;15.43;;;;;;;6.77;78.75;100487.73;1785354;80;21310;-54
2021/01/23 08:06:51;;;;;;;24.87;14.93;;;;;;;6.78;78.57;100481.80;1797981;80;21208;-53
2021/01/23 08:10:13;;;;;;;25.08;15.90;;;;;;;6.79;78.34;100483.50;1781178;80;21237;-53
2021/01/23 08:13:19;;;;;;;28.95;15.75;;;;;;;6.79;78.20;100480.78;1767412;81;21229;-54
2021/01/23 08:16:25;;;;;;;26.37;16.32;;;;;;;6.78;78.09;100474.52;1766624;81;21232;-53
2021/01/23 08:19:32;;;;;;;26.65;15.70;;;;;;;6.74;77.93;100474.44;1766546;80;21449;-53
2021/01/23 08:22:37;;;;;;;27.45;16.20;;;;;;;6.66;77.84;100478.41;1765107;81;21230;-54
2021/01/23 08:25:58;;;;;;;27.02;17.15;;;;;;;6.56;77.95;100472.66;1766488;80;21401;-54
2021/01/23 08:29:04;;;;;;;28.92;17.52;;;;;;;6.56;78.22;100477.59;1788542;80;21737;-54
2021/01/23 08:32:10;;;;;;;27.85;17.20;;;;;;;6.54;78.20;100489.13;1732498;82;21220;-54
2021/01/23 08:35:16;;;;;;;36.75;17.82;;;;;;;6.54;78.40;100490.48;1785946;80;21721;-54
2021/01/23 08:38:22;;;;;;;32.33;16.57;;;;;;;6.64;78.59;100485.88;1791180;80;21674;-54
2021/01/23 08:41:26;;;;;;;36.40;19.48;;;;;;;6.76;78.54;100483.81;1790784;80;21331;-54
2021/01/23 08:44:33;;;;;;;27.50;17.67;;;;;;;6.80;78.28;100474.36;1798131;80;21519;-54
2021/01/23 08:47:38;;;;;;;30.70;19.85;;;;;;;6.84;78.23;100480.70;1798411;80;21180;-54
2021/01/23 08:50:44;;;;;;;37.35;22.02;;;;;;;6.88;78.19;100484.83;1798428;80;21189;-55
2021/01/23 08:53:49;;;;;;;34.63;20.55;;;;;;;6.93;78.11;100483.88;1754630;81;21270;-54
2021/01/23 08:56:53;;;;;;;42.20;20.45;;;;;;;6.96;77.90;100469.97;1798754;79;21741;-54
2021/01/23 08:59:59;;;;;;;34.23;19.73;;;;;;;6.97;77.75;100470.83;1785506;80;21236;-54
2021/01/23 09:03:05;;;;;;;33.92;20.27;;;;;;;6.93;77.71;100471.63;1787135;80;21208;-54
2021/01/23 09:06:13;;;;;;;41.45;23.60;;;;;;;6.92;77.90;100465.84;1756390;81;21295;-54
2021/01/23 09:09:19;;;;;;;44.50;25.48;;;;;;;6.97;77.93;100473.06;1787757;79;21220;-54
2021/01/23 09:12:24;;;;;;;40.65;23.22;;;;;;;7.00;77.79;100470.53;1771031;79;21185;-54
2021/01/23 09:15:30;;;;;;;30.52;19.17;;;;;;;7.04;77.74;100464.63;1766657;80;21189;-54
2021/01/23 09:18:35;;;;;;;36.75;21.12;;;;;;;7.07;77.67;100460.23;1768180;80;22106;-54
2021/01/23 09:21:41;;;;;;;38.15;20.77;;;;;;;7.08;77.63;100466.05;1776733;80;21242;-54
2021/01/23 09:24:46;;;;;;;37.25;21.45;;;;;;;7.12;77.70;100459.28;1718629;82;21218;-54
2021/01/23 09:27:51;;;;;;;38.55;21.25;;;;;;;7.16;77.65;100457.98;1772097;80;21233;-54
2021/01/23 09:30:56;;;;;;;32.98;19.50;;;;;;;7.21;77.65;100461.11;1772523;79;21828;-54
2021/01/23 09:34:01;;;;;;;40.12;22.05;;;;;;;7.26;77.55;100466.93;1772296;79;21217;-54
2021/01/23 09:37:06;;;;;;;35.43;21.85;;;;;;;7.32;77.53;100471.80;1772505;80;21264;-55
2021/01/23 09:40:13;;;;;;;33.65;20.40;;;;;;;7.38;77.52;100471.17;1772704;79;21205;-54
2021/01/23 09:43:18;;;;;;;32.08;20.27;;;;;;;7.44;77.28;100461.02;1774226;79;21351;-54
2021/01/23 09:46:24;;;;;;;33.80;20.30;;;;;;;7.49;77.16;100460.55;1715013;82;21496;-54
2021/01/23 09:49:29;;;;;;;33.63;19.65;;;;;;;7.53;76.99;100445.63;1734476;82;21423;-53
2021/01/23 09:52:35;;;;;;;30.05;19.27;;;;;;;7.52;76.69;100452.06;1734576;82;21268;-53
2021/01/23 09:55:40;;;;;;;35.80;21.17;;;;;;;7.44;76.63;100454.21;1734734;82;21213;-54
2021/01/23 09:58:45;;;;;;;33.80;19.67;;;;;;;7.43;76.74;100456.59;1737421;81;21358;-54
2021/01/23 10:01:53;;;;;;;29.60;18.70;;;;;;;7.48;76.66;100459.69;1770994;81;21209;-53
2021/01/23 10:05:01;;;;;;;30.35;20.50;;;;;;;7.54;76.59;100465.91;1771332;80;21719;-54
2021/01/23 10:08:07;;;;;;;31.35;20.72;;;;;;;7.56;76.42;100462.50;1768020;80;21693;-54
2021/01/23 10:11:18;;;;;;;31.02;20.17;;;;;;;7.61;76.53;100460.17;1743467;81;21811;-54
2021/01/23 10:14:23;;;;;;;34.65;21.95;;;;;;;7.72;76.46;100456.88;1739761;81;21633;-54
2021/01/23 10:17:29;;;;;;;26.65;17.85;;;;;;;7.78;76.14;100458.97;1743973;81;21244;-53
2021/01/23 10:20:37;;;;;;;27.32;18.40;;;;;;;7.81;75.97;100455.92;1759146;81;21236;-53
2021/01/23 10:23:42;;;;;;;25.62;18.27;;;;;;;7.87;75.90;100456.66;1775663;79;21274;-53
2021/01/23 10:26:48;;;;;;;24.27;16.20;;;;;;;7.90;75.69;100455.84;1762911;80;21185;-54
2021/01/23 10:29:53;;;;;;;26.73;18.67;;;;;;;7.91;75.61;100450.77;1804031;78;21378;-54
2021/01/23 10:32:59;;;;;;;25.08;15.68;;;;;;;7.96;75.50;100458.46;1779216;79;21200;-54
2021/01/23 10:36:05;;;;;;;29.40;18.77;;;;;;;8.01;75.25;100442.50;1773267;80;22211;-54
2021/01/23 10:39:12;;;;;;;26.23;15.95;;;;;;;8.01;75.09;100443.33;1785483;80;21231;-54
2021/01/23 10:42:17;;;;;;;24.67;17.27;;;;;;;8.04;74.95;100438.09;1786030;80;21212;-54
2021/01/23 10:45:22;;;;;;;24.30;17.70;;;;;;;8.00;74.93;100438.04;1785921;80;21216;-55
2021/01/23 10:48:28;;;;;;;23.87;16.87;;;;;;;7.98;74.97;100438.20;1785888;80;21260;-54
2021/01/23 10:51:34;;;;;;;27.48;18.45;;;;;;;8.01;75.06;100434.31;1786182;80;21358;-55
2021/01/23 10:54:41;;;;;;;25.80;17.55;;;;;;;8.00;74.87;100429.36;1786602;80;21382;-55
2021/01/23 10:57:47;;;;;;;22.55;14.73;;;;;;;7.95;74.84;100426.25;1786320;80;21342;-54
2021/01/23 11:00:52;;;;;;;25.37;16.55;;;;;;;7.89;74.84;100432.83;1786215;80;21413;-54
2021/01/23 11:03:58;;;;;;;23.98;16.90;;;;;;;7.80;75.08;100433.79;1790619;78;21715;-53
2021/01/23 11:07:03;;;;;;;37.70;19.32;;;;;;;7.72;75.27;100431.86;1754763;81;21818;-54
2021/01/23 11:10:08;;;;;;;40.92;23.77;;;;;;;7.68;75.45;100435.02;1755089;81;21223;-54
2021/01/23 11:13:13;;;;;;;42.10;23.22;;;;;;;7.66;75.75;100432.98;1764024;80;21196;-53
2021/01/23 11:16:19;;;;;;;36.55;21.70;;;;;;;7.75;75.96;100429.31;1796549;78;21338;-53
2021/01/23 11:19:25;;;;;;;38.30;20.50;;;;;;;7.80;75.85;100426.98;1779556;80;21800;-53
2021/01/23 11:22:30;;;;;;;29.23;18.23;;;;;;;7.86;75.72;100424.98;1781431;79;21789;-53
2021/01/23 11:25:37;;;;;;;22.30;15.68;;;;;;;7.88;75.55;100421.06;1787681;78;21776;-54
2021/01/23 11:28:42;;;;;;;25.10;16.40;;;;;;;7.85;75.40;100417.83;1712197;82;21204;-54
2021/01/23 11:31:47;;;;;;;23.40;15.13;;;;;;;7.80;75.47;100417.44;1767057;81;21725;-53
2021/01/23 11:34:53;;;;;;;25.48;15.80;;;;;;;7.78;75.57;100422.19;1741569;81;21370;-53
2021/01/23 11:38:02;;;;;;;25.43;17.20;;;;;;;7.75;75.57;100426.09;1766205;80;21370;-54
2021/01/23 11:41:11;;;;;;;24.12;16.73;;;;;;;7.76;75.63;100424.20;1752196;81;21370;-53
2021/01/23 11:44:17;;;;;;;29.57;18.02;;;;;;;7.72;75.70;100426.91;1743275;81;21228;-54
2021/01/23 11:47:24;;;;;;;26.55;17.10;;;;;;;7.68;75.73;100426.84;1740903;81;21402;-55
2021/01/23 11:50:30;;;;;;;25.75;16.67;;;;;;;7.67;76.02;100431.95;1740734;81;21278;-55
2021/01/23 11:53:36;;;;;;;27.93;16.25;;;;;;;7.68;76.04;100435.02;1741845;81;21370;-53
2021/01/23 11:56:41;;;;;;;26.68;16.32;;;;;;;7.66;75.95;100426.17;1710410;83;21457;-55
2021/01/23 11:59:47;;;;;;;22.93;15.63;;;;;;;7.63;76.19;100421.04;1711548;82;21306;-54
2021/01/23 12:02:51;;;;;;;21.17;13.90;;;;;;;7.56;75.96;100422.17;1740592;82;21199;-55
2021/01/23 12:05:57;;;;;;;25.32;15.75;;;;;;;7.41;76.20;100419.12;1740729;82;21375;-55
2021/01/23 12:09:02;;;;;;;23.52;14.90;;;;;;;7.34;76.44;100417.18;1740986;82;21335;-55
2021/01/23 12:12:08;;;;;;;23.98;15.28;;;;;;;7.28;76.66;100415.91;1741256;82;21545;-55
2021/01/23 12:15:17;;;;;;;23.50;13.80;;;;;;;7.25;76.92;100412.14;1741781;82;21378;-53
2021/01/23 12:18:22;;;;;;;21.27;13.00;;;;;;;7.28;77.16;100413.69;1741543;82;21359;-53
2021/01/23 12:21:28;;;;;;;23.57;14.65;;;;;;;7.20;77.17;100414.46;1741362;82;21553;-54
2021/01/23 12:24:33;;;;;;;23.00;14.85;;;;;;;7.20;77.48;100415.83;1741334;82;21335;-54
2021/01/23 12:27:39;;;;;;;25.12;14.93;;;;;;;7.18;77.49;100411.03;1751923;79;21494;-54
2021/01/23 12:30:45;;;;;;;24.20;14.20;;;;;;;7.10;77.63;100413.66;1782125;79;21296;-53
2021/01/23 12:33:50;;;;;;;20.45;12.70;;;;;;;7.05;77.99;100416.51;1786374;80;21334;-53
2021/01/23 12:36:56;;;;;;;23.90;15.00;;;;;;;7.00;78.20;100418.33;1786527;80;21370;-53
2021/01/23 12:40:04;;;;;;;23.52;15.13;;;;;;;6.98;78.42;100425.78;1786046;80;21421;-53
2021/01/23 12:43:09;;;;;;;21.52;15.20;;;;;;;6.96;78.60;100427.78;1785063;80;21346;-54
2021/01/23 12:46:15;;;;;;;22.62;15.68;;;;;;;6.99;78.80;100428.84;1796607;78;21200;-54
2021/01/23 12:49:23;;;;;;;25.45;16.90;;;;;;;6.96;78.90;100430.51;1784440;79;21192;-54
2021/01/23 12:52:28;;;;;;;21.20;14.10;;;;;;;6.93;78.97;100423.18;1766311;81;21165;-54
2021/01/23 12:55:34;;;;;;;25.37;15.45;;;;;;;6.93;79.07;100428.62;1752596;81;21219;-54
2021/01/23 12:58:39;;;;;;;21.07;13.90;;;;;;;6.93;79.23;100421.30;1753291;81;21176;-54
2021/01/23 13:01:49;;;;;;;26.55;15.68;;;;;;;7.00;79.30;100428.34;1753286;81;21200;-54
2021/01/23 13:04:57;;;;;;;23.83;15.15;;;;;;;7.05;79.36;100421.45;1772687;80;21188;-54
2021/01/23 13:08:03;;;;;;;26.07;16.23;;;;;;;7.06;79.33;100419.07;1765392;80;21756;-54
2021/01/23 13:11:09;;;;;;;30.35;17.80;;;;;;;7.09;79.40;100424.20;1802268;79;21550;-53
2021/01/23 13:14:14;;;;;;;24.98;16.15;;;;;;;7.11;79.44;100418.11;1785094;80;21225;-54
2021/01/23 13:17:19;;;;;;;23.67;15.98;;;;;;;7.17;79.38;100422.94;1785591;80;21325;-54
2021/01/23 13:20:25;;;;;;;27.50;16.87;;;;;;;7.11;79.16;100429.00;1784213;79;21524;-53
2021/01/23 13:23:31;;;;;;;22.90;15.10;;;;;;;7.05;79.17;100427.39;1786019;80;21847;-54
2021/01/23 13:26:37;;;;;;;27.75;17.52;;;;;;;6.96;79.35;100428.31;1785602;79;21450;-53
2021/01/23 13:29:43;;;;;;;25.60;17.37;;;;;;;6.89;79.53;100430.78;1782800;80;21980;-54
2021/01/23 13:32:50;;;;;;;26.95;16.82;;;;;;;6.87;79.73;100431.42;1783596;80;21354;-55
2021/01/23 13:35:58;;;;;;;22.85;15.13;;;;;;;6.82;79.89;100428.82;1754391;82;21389;-53
2021/01/23 13:39:06;;;;;;;29.85;18.32;;;;;;;6.80;80.13;100438.98;1795355;79;21193;-53
2021/01/23 13:42:13;;;;;;;30.52;17.25;;;;;;;6.79;80.22;100423.16;1752621;82;21870;-53
2021/01/23 13:45:19;;;;;;;26.68;16.85;;;;;;;6.80;80.36;100431.66;1807636;79;21436;-54
2021/01/23 13:48:25;;;;;;;27.85;15.98;;;;;;;6.79;80.46;100420.44;1807572;79;21311;-54
2021/01/23 13:51:30;;;;;;;27.87;15.83;;;;;;;6.82;80.52;100426.94;1807522;79;21824;-54
2021/01/23 13:54:35;;;;;;;28.55;16.65;;;;;;;6.82;80.60;100426.94;1807505;79;21212;-54
2021/01/23 13:57:41;;;;;;;34.30;18.48;;;;;;;6.84;80.67;100434.45;1751967;82;21212;-54
2021/01/23 14:00:45;;;;;;;28.02;16.77;;;;;;;6.85;80.67;100429.35;1807751;79;21390;-54
2021/01/23 14:03:52;;;;;;;34.27;17.82;;;;;;;6.93;80.84;100441.70;1802902;79;21391;-53
2021/01/23 14:06:58;;;;;;;26.97;15.65;;;;;;;7.01;80.72;100432.27;1778072;80;21201;-54
2021/01/23 14:10:05;;;;;;;29.32;16.65;;;;;;;7.01;80.55;100440.44;1781037;79;21366;-54
2021/01/23 14:13:11;;;;;;;29.85;16.80;;;;;;;7.03;80.63;100447.95;1777453;80;21331;-54
2021/01/23 14:16:18;;;;;;;40.40;19.70;;;;;;;7.08;80.66;100452.94;1777386;80;21335;-54
2021/01/23 14:19:24;;;;;;;32.35;17.80;;;;;;;7.14;80.56;100460.49;1753572;82;21279;-54
2021/01/23 14:22:29;;;;;;;32.30;18.45;;;;;;;7.16;80.45;100457.98;1777651;80;21330;-54
2021/01/23 14:25:35;;;;;;;35.13;18.80;;;;;;;7.19;80.38;100460.41;1777866;80;21224;-55
2021/01/23 14:28:41;;;;;;;30.23;17.48;;;;;;;7.18;80.35;100466.84;1781516;79;21419;-54
2021/01/23 14:31:45;;;;;;;29.48;17.50;;;;;;;7.17;80.37;100467.86;1778067;80;21177;-54
2021/01/23 14:34:51;;;;;;;31.27;19.45;;;;;;;7.22;80.36;100464.18;1797541;80;21840;-54
2021/01/23 14:37:57;;;;;;;29.63;19.00;;;;;;;7.27;80.35;100472.75;1742896;81;21370;-53
2021/01/23 14:41:01;;;;;;;34.03;17.77;;;;;;;7.30;80.13;100467.49;1765627;81;21369;-53
2021/01/23 14:44:07;;;;;;;34.58;19.90;;;;;;;7.27;80.09;100472.75;1772601;81;22421;-55
2021/01/23 14:47:13;;;;;;;36.33;19.23;;;;;;;7.26;80.12;100472.38;1778035;79;21345;-55
2021/01/23 14:50:20;;;;;;;27.05;15.98;;;;;;;7.29;80.11;100472.59;1767413;81;21457;-54
2021/01/23 14:53:26;;;;;;;28.15;17.10;;;;;;;7.34;80.06;100472.47;1788790;80;21204;-53